createdAt,value
2018-01-06T00:00:22.693Z,6.90
2018-01-06T00:02:50.262Z,6.90
2018-01-06T00:05:17.833Z,6.90
2018-01-06T00:07:45.437Z,6.90
2018-01-06T00:10:13.719Z,6.80
2018-01-06T00:12:41.272Z,6.80
2018-01-06T00:15:09.574Z,6.70
2018-01-06T00:17:37.124Z,6.70
2018-01-06T00:20:04.670Z,6.70
2018-01-06T00:22:32.182Z,6.70
2018-01-06T00:24:59.732Z,6.70
2018-01-06T00:27:27.247Z,6.70
2018-01-06T00:29:54.843Z,6.70
2018-01-06T00:32:22.353Z,6.70
2018-01-06T00:34:50.618Z,6.80
2018-01-06T00:37:18.956Z,6.80
2018-01-06T00:39:46.483Z,6.80
2018-01-06T00:42:13.998Z,6.80
2018-01-06T00:44:41.541Z,6.70
2018-01-06T00:47:09.092Z,6.70
2018-01-06T00:49:36.612Z,6.70
2018-01-06T00:52:04.123Z,6.70
2018-01-06T00:54:32.430Z,6.70
2018-01-06T00:57:00.706Z,6.70
2018-01-06T00:59:28.970Z,6.70
2018-01-06T01:01:57.254Z,6.70
2018-01-06T01:04:25.585Z,6.70
2018-01-06T01:06:53.103Z,6.70
2018-01-06T01:09:21.397Z,6.70
2018-01-06T01:11:48.979Z,6.70
2018-01-06T01:14:16.494Z,6.70
2018-01-06T01:16:44.754Z,6.70
2018-01-06T01:19:13.038Z,6.70
2018-01-06T01:21:41.311Z,6.60
2018-01-06T01:24:09.588Z,6.60
2018-01-06T01:26:37.913Z,6.60
2018-01-06T01:29:05.414Z,6.60
2018-01-06T01:31:33.003Z,6.60
2018-01-06T01:34:00.515Z,6.60
2018-01-06T01:36:28.006Z,6.60
2018-01-06T01:38:56.287Z,6.60
2018-01-06T01:41:24.550Z,6.60
2018-01-06T01:43:52.826Z,6.70
2018-01-06T01:46:21.092Z,6.70
2018-01-06T01:48:49.398Z,6.60
2018-01-06T01:51:16.954Z,6.60
2018-01-06T01:53:44.466Z,6.60
2018-01-06T01:56:11.971Z,6.60
2018-01-06T01:58:39.482Z,6.60
2018-01-06T02:01:06.975Z,6.70
2018-01-06T02:03:35.585Z,6.60
2018-01-06T02:06:03.078Z,6.60
2018-01-06T02:08:30.655Z,6.60
2018-01-06T02:10:59.654Z,6.60
2018-01-06T02:13:28.003Z,6.60
2018-01-06T02:15:55.482Z,6.60
2018-01-06T02:18:22.995Z,6.70
2018-01-06T02:20:50.534Z,6.60
2018-01-06T02:23:18.090Z,6.70
2018-01-06T02:25:45.655Z,6.70
2018-01-06T02:28:13.206Z,6.70
2018-01-06T02:30:40.775Z,6.70
2018-01-06T02:33:08.328Z,6.70
2018-01-06T02:35:35.818Z,6.70
2018-01-06T02:38:03.331Z,6.60
2018-01-06T02:40:31.603Z,6.60
2018-01-06T02:42:59.138Z,6.60
2018-01-06T02:45:28.325Z,6.60
2018-01-06T02:47:55.964Z,6.50
2018-01-06T02:50:23.478Z,6.50
2018-01-06T02:52:51.766Z,6.40
2018-01-06T02:55:19.262Z,6.40
2018-01-06T02:57:46.787Z,6.30
2018-01-06T03:00:14.310Z,6.30
2018-01-06T03:02:41.804Z,6.30
2018-01-06T03:05:09.683Z,6.20
2018-01-06T03:07:37.234Z,6.20
2018-01-06T03:10:04.786Z,6.20
2018-01-06T03:12:32.287Z,6.20
2018-01-06T03:14:59.795Z,6.20
2018-01-06T03:17:28.054Z,6.10
2018-01-06T03:19:56.330Z,6.10
2018-01-06T03:22:24.894Z,5.90
2018-01-06T03:24:52.415Z,6.00
2018-01-06T03:27:19.906Z,5.90
2018-01-06T03:29:47.510Z,5.80
2018-01-06T03:32:15.070Z,5.80
2018-01-06T03:34:42.638Z,5.80
2018-01-06T03:37:10.138Z,5.80
2018-01-06T03:39:37.647Z,5.70
2018-01-06T03:42:05.207Z,5.70
2018-01-06T03:44:32.721Z,5.60
2018-01-06T03:47:00.214Z,5.60
2018-01-06T03:49:28.506Z,5.50
2018-01-06T03:51:55.999Z,5.50
2018-01-06T03:54:23.510Z,5.40
2018-01-06T03:56:51.073Z,5.30
2018-01-06T03:59:18.583Z,5.30
2018-01-06T04:01:46.078Z,5.20
2018-01-06T04:04:14.462Z,5.10
2018-01-06T04:06:42.718Z,5.10
2018-01-06T04:09:10.223Z,5.10
2018-01-06T04:11:37.739Z,5.10
2018-01-06T04:14:06.016Z,4.90
2018-01-06T04:16:34.307Z,4.80
2018-01-06T04:19:02.579Z,4.70
2018-01-06T04:21:30.856Z,4.70
2018-01-06T04:23:58.355Z,4.60
2018-01-06T04:26:25.870Z,4.60
2018-01-06T04:28:54.130Z,4.80
2018-01-06T04:31:22.431Z,4.80
2018-01-06T04:33:49.923Z,4.80
2018-01-06T04:36:17.451Z,4.90
2018-01-06T04:38:44.950Z,4.90
2018-01-06T04:41:12.459Z,4.90
2018-01-06T04:43:40.022Z,4.90
2018-01-06T04:46:07.538Z,4.90
2018-01-06T04:48:35.148Z,4.90
2018-01-06T04:51:02.667Z,4.90
2018-01-06T04:53:30.260Z,4.80
2018-01-06T04:55:57.770Z,4.80
2018-01-06T04:58:25.262Z,4.80
2018-01-06T05:00:53.538Z,4.80
2018-01-06T05:03:22.148Z,4.80
2018-01-06T05:05:49.706Z,4.70
2018-01-06T05:08:17.263Z,4.70
2018-01-06T05:10:44.810Z,4.70
2018-01-06T05:13:12.302Z,4.60
2018-01-06T05:15:39.810Z,4.50
2018-01-06T05:18:08.066Z,4.30
2018-01-06T05:20:35.823Z,4.30
2018-01-06T05:23:03.330Z,4.30
2018-01-06T05:25:30.843Z,4.30
2018-01-06T05:27:58.342Z,4.20
2018-01-06T05:30:25.898Z,4.20
2018-01-06T05:32:53.397Z,4.10
2018-01-06T05:35:21.018Z,4.10
2018-01-06T05:37:48.522Z,4.10
2018-01-06T05:40:16.060Z,4.10
2018-01-06T05:42:43.568Z,4.00
2018-01-06T05:45:11.926Z,3.90
2018-01-06T05:47:39.422Z,3.90
2018-01-06T05:50:07.702Z,3.90
2018-01-06T05:52:35.270Z,3.90
2018-01-06T05:55:02.854Z,3.90
2018-01-06T05:57:31.070Z,3.90
2018-01-06T05:59:59.355Z,3.90
2018-01-06T06:02:27.623Z,3.90
2018-01-06T06:04:55.894Z,3.90
2018-01-06T06:07:23.488Z,3.80
2018-01-06T06:09:50.991Z,3.90
2018-01-06T06:12:18.507Z,3.80
2018-01-06T06:14:46.063Z,3.70
2018-01-06T06:17:13.622Z,3.60
2018-01-06T06:19:41.182Z,3.50
2018-01-06T06:22:08.748Z,3.50
2018-01-06T06:24:36.246Z,3.50
2018-01-06T06:27:03.755Z,3.50
2018-01-06T06:29:31.254Z,3.60
2018-01-06T06:31:58.771Z,3.60
2018-01-06T06:34:26.334Z,3.70
2018-01-06T06:36:53.843Z,3.70
2018-01-06T06:39:21.338Z,3.70
2018-01-06T06:41:48.854Z,3.70
2018-01-06T06:44:16.358Z,3.70
2018-01-06T06:46:43.874Z,3.60
2018-01-06T06:49:11.374Z,3.60
2018-01-06T06:51:38.893Z,3.60
2018-01-06T06:54:06.494Z,3.60
2018-01-06T06:56:34.006Z,3.60
2018-01-06T06:59:01.502Z,3.60
2018-01-06T07:01:29.778Z,3.60
2018-01-06T07:03:58.039Z,3.70
2018-01-06T07:06:26.332Z,3.80
2018-01-06T07:08:54.602Z,3.90
2018-01-06T07:11:22.900Z,3.90
2018-01-06T07:13:50.410Z,3.90
2018-01-06T07:16:17.935Z,3.90
2018-01-06T07:18:45.448Z,4.00
2018-01-06T07:21:13.739Z,4.10
2018-01-06T07:23:41.310Z,4.10
2018-01-06T07:26:08.858Z,4.10
2018-01-06T07:28:36.390Z,4.10
2018-01-06T07:31:03.978Z,4.10
2018-01-06T07:33:31.542Z,4.10
2018-01-06T07:35:59.067Z,4.10
2018-01-06T07:38:27.335Z,4.10
2018-01-06T07:40:54.934Z,4.10
2018-01-06T07:43:22.439Z,4.10
2018-01-06T07:45:49.974Z,4.10
2018-01-06T07:48:17.515Z,4.10
2018-01-06T07:50:50.702Z,4.10
2018-01-06T07:53:18.226Z,4.20
2018-01-06T07:55:45.731Z,4.20
2018-01-06T07:58:13.255Z,4.20
2018-01-06T08:00:41.526Z,4.20
2018-01-06T08:03:09.830Z,4.10
2018-01-06T08:05:37.331Z,4.10
2018-01-06T08:08:04.846Z,4.10
2018-01-06T08:10:32.354Z,4.10
2018-01-06T08:12:59.891Z,4.10
2018-01-06T08:15:27.391Z,4.20
2018-01-06T08:17:55.678Z,4.40
2018-01-06T08:20:23.942Z,4.40
2018-01-06T08:22:52.564Z,4.40
2018-01-06T08:25:20.062Z,4.40
2018-01-06T08:27:47.578Z,4.30
2018-01-06T08:30:15.079Z,4.40
2018-01-06T08:32:42.903Z,4.40
2018-01-06T08:35:10.409Z,4.40
2018-01-06T08:37:37.927Z,4.50
2018-01-06T08:40:05.460Z,4.50
2018-01-06T08:42:33.729Z,4.70
2018-01-06T08:45:02.005Z,4.90
2018-01-06T08:47:29.547Z,4.80
2018-01-06T08:49:57.046Z,5.00
2018-01-06T08:52:24.571Z,5.10
2018-01-06T08:54:52.834Z,5.30
2018-01-06T08:57:20.351Z,5.30
2018-01-06T08:59:47.854Z,5.50
2018-01-06T09:02:15.711Z,5.50
2018-01-06T09:04:43.527Z,5.60
2018-01-06T09:07:11.034Z,5.80
2018-01-06T09:09:38.530Z,5.90
2018-01-06T09:12:06.042Z,6.00
2018-01-06T09:14:33.550Z,6.10
2018-01-06T09:17:01.051Z,6.10
2018-01-06T09:19:28.562Z,6.20
2018-01-06T09:21:56.067Z,6.30
2018-01-06T09:24:23.575Z,6.20
2018-01-06T09:26:51.498Z,6.30
2018-01-06T09:29:19.011Z,6.50
2018-01-06T09:31:46.511Z,6.60
2018-01-06T09:34:14.027Z,6.60
2018-01-06T09:36:41.522Z,6.70
2018-01-06T09:41:50.398Z,6.70
2018-01-06T09:44:18.674Z,6.80
2018-01-06T09:46:46.933Z,6.80
2018-01-06T09:49:14.443Z,6.80
2018-01-06T09:51:41.938Z,6.90
2018-01-06T09:54:09.446Z,6.90
2018-01-06T09:56:36.938Z,6.90
2018-01-06T09:59:04.446Z,6.90
2018-01-06T10:01:33.057Z,6.90
2018-01-06T10:04:00.584Z,6.90
2018-01-06T10:06:28.847Z,7.10
2018-01-06T10:08:56.359Z,7.10
2018-01-06T10:11:23.895Z,7.20
2018-01-06T10:13:51.431Z,7.20
2018-01-06T10:16:19.698Z,7.30
2018-01-06T10:18:48.006Z,7.50
2018-01-06T10:21:15.506Z,7.50
2018-01-06T10:23:43.001Z,7.40
2018-01-06T10:26:11.279Z,7.70
2018-01-06T10:28:39.555Z,7.70
2018-01-06T10:31:07.835Z,7.90
2018-01-06T10:33:36.103Z,8.00
2018-01-06T10:36:04.378Z,8.00
2018-01-06T10:38:32.642Z,8.00
2018-01-06T10:41:00.163Z,7.90
2018-01-06T10:43:27.658Z,8.00
2018-01-06T10:45:55.166Z,8.10
2018-01-06T10:48:22.662Z,8.20
2018-01-06T10:50:50.179Z,8.30
2018-01-06T10:53:17.679Z,8.30
2018-01-06T10:55:45.201Z,8.40
2018-01-06T10:58:12.700Z,8.50
2018-01-06T11:00:46.015Z,8.60
2018-01-06T11:03:14.288Z,8.70
2018-01-06T11:05:42.609Z,8.60
2018-01-06T11:08:10.465Z,8.60
2018-01-06T11:10:37.975Z,8.50
2018-01-06T11:13:05.476Z,8.40
2018-01-06T11:15:32.990Z,8.40
2018-01-06T11:18:00.482Z,8.40
2018-01-06T11:20:27.994Z,8.30
2018-01-06T11:22:55.499Z,8.30
2018-01-06T11:25:23.022Z,8.50
2018-01-06T11:27:50.518Z,8.40
2018-01-06T11:30:18.033Z,8.60
2018-01-06T11:32:45.571Z,8.60
2018-01-06T11:35:13.063Z,8.80
2018-01-06T11:37:41.346Z,8.80
2018-01-06T11:40:09.651Z,8.80
2018-01-06T11:42:37.207Z,8.80
2018-01-06T11:45:04.852Z,9.10
2018-01-06T11:47:32.402Z,9.20
2018-01-06T11:50:00.782Z,9.00
2018-01-06T11:52:28.442Z,9.00
2018-01-06T11:54:56.723Z,9.10
2018-01-06T11:57:25.011Z,9.10
2018-01-06T11:59:52.511Z,9.10
2018-01-06T12:02:20.798Z,9.20
2018-01-06T12:04:48.300Z,9.10
2018-01-06T12:07:15.851Z,9.20
2018-01-06T12:09:44.118Z,9.10
2018-01-06T12:12:12.394Z,9.40
2018-01-06T12:14:40.658Z,9.40
2018-01-06T12:17:08.499Z,9.40
2018-01-06T12:19:36.758Z,9.60
2018-01-06T12:22:04.250Z,9.60
2018-01-06T12:24:31.762Z,9.50
2018-01-06T12:26:59.259Z,9.50
2018-01-06T12:29:26.841Z,9.50
2018-01-06T12:31:54.327Z,9.50
2018-01-06T12:34:21.948Z,9.80
2018-01-06T12:36:49.548Z,9.60
2018-01-06T12:39:17.063Z,9.80
2018-01-06T12:41:44.564Z,9.80
2018-01-06T12:44:12.082Z,9.80
2018-01-06T12:46:39.579Z,9.80
2018-01-06T12:49:07.090Z,9.90
2018-01-06T12:51:35.149Z,9.90
2018-01-06T12:54:02.680Z,10.00
2018-01-06T12:56:30.181Z,10.00
2018-01-06T12:58:57.702Z,9.90
2018-01-06T13:01:25.206Z,10.20
2018-01-06T13:03:53.498Z,10.30
2018-01-06T13:06:21.762Z,10.20
2018-01-06T13:08:49.279Z,10.20
2018-01-06T13:11:16.780Z,10.20
2018-01-06T13:13:45.139Z,10.00
2018-01-06T13:16:12.673Z,10.00
2018-01-06T13:18:40.204Z,10.00
2018-01-06T13:21:07.755Z,10.10
2018-01-06T13:23:35.325Z,10.00
2018-01-06T13:26:02.856Z,10.00
2018-01-06T13:28:30.399Z,9.90
2018-01-06T13:30:57.899Z,10.00
2018-01-06T13:33:25.419Z,10.10
2018-01-06T13:35:52.927Z,10.10
2018-01-06T13:38:20.484Z,10.10
2018-01-06T13:40:48.003Z,10.10
2018-01-06T13:43:16.511Z,10.10
2018-01-06T13:45:44.027Z,10.10
2018-01-06T13:48:11.530Z,10.00
2018-01-06T13:50:39.046Z,9.90
2018-01-06T13:53:06.552Z,9.70
2018-01-06T13:55:34.062Z,9.80
2018-01-06T13:58:01.567Z,9.90
2018-01-06T14:00:29.082Z,10.10
2018-01-06T14:02:56.629Z,10.10
2018-01-06T14:05:24.150Z,10.00
2018-01-06T14:07:51.660Z,9.80
2018-01-06T14:10:19.954Z,9.70
2018-01-06T14:12:48.215Z,9.80
2018-01-06T14:15:16.500Z,9.70
2018-01-06T14:17:44.814Z,9.80
2018-01-06T14:20:12.364Z,9.80
2018-01-06T14:22:39.863Z,9.90
2018-01-06T14:25:07.416Z,9.70
2018-01-06T14:27:34.914Z,9.70
2018-01-06T14:30:03.194Z,9.20
2018-01-06T14:32:31.462Z,9.20
2018-01-06T14:34:59.743Z,9.20
2018-01-06T14:37:29.875Z,9.20
2018-01-06T14:39:55.570Z,9.20
2018-01-06T14:42:23.940Z,8.90
2018-01-06T14:44:52.230Z,8.90
2018-01-06T14:47:20.491Z,8.80
2018-01-06T14:49:48.006Z,8.80
2018-01-06T14:52:15.544Z,8.60
2018-01-06T14:54:43.073Z,8.60
2018-01-06T14:57:11.338Z,8.50
2018-01-06T14:59:38.830Z,8.50
2018-01-06T15:02:06.345Z,8.20
2018-01-06T15:04:33.884Z,8.10
2018-01-06T15:07:01.396Z,7.90
2018-01-06T15:09:29.700Z,7.70
2018-01-06T15:11:57.214Z,7.70
2018-01-06T15:14:25.478Z,7.60
2018-01-06T15:16:52.990Z,7.60
2018-01-06T15:19:20.486Z,7.50
2018-01-06T15:21:47.995Z,7.50
2018-01-06T15:24:15.494Z,7.40
2018-01-06T15:26:43.011Z,7.30
2018-01-06T15:29:10.544Z,7.30
2018-01-06T15:31:38.822Z,7.10
2018-01-06T15:34:07.082Z,7.00
2018-01-06T15:36:34.598Z,7.00
2018-01-06T15:39:02.142Z,6.90
2018-01-06T15:41:29.656Z,6.80
2018-01-06T15:43:57.154Z,6.70
2018-01-06T15:46:24.670Z,6.60
2018-01-06T15:48:52.208Z,6.50
2018-01-06T15:51:19.716Z,6.50
2018-01-06T15:53:47.210Z,6.40
2018-01-06T15:56:14.722Z,6.30
2018-01-06T15:58:42.994Z,6.10
2018-01-06T16:01:11.270Z,6.00
2018-01-06T16:03:39.535Z,5.90
2018-01-06T16:06:07.051Z,5.90
2018-01-06T16:08:34.557Z,5.70
2018-01-06T16:11:02.843Z,5.50
2018-01-06T16:13:31.110Z,5.50
2018-01-06T16:15:59.414Z,5.40
2018-01-06T16:18:26.918Z,5.40
2018-01-06T16:20:55.926Z,5.30
2018-01-06T16:23:23.489Z,5.30
2018-01-06T16:25:51.813Z,5.30
2018-01-06T16:28:19.334Z,5.20
2018-01-06T16:30:47.604Z,5.20
2018-01-06T16:33:15.894Z,5.20
2018-01-06T16:35:44.200Z,5.00
2018-01-06T16:38:11.730Z,5.00
2018-01-06T16:40:40.000Z,4.90
2018-01-06T16:43:08.281Z,4.90
2018-01-06T16:45:36.538Z,4.80
2018-01-06T16:48:04.059Z,4.80
2018-01-06T16:50:31.601Z,4.70
2018-01-06T16:52:59.123Z,4.70
2018-01-06T16:55:27.436Z,4.80
2018-01-06T16:57:54.965Z,4.70
2018-01-06T17:00:23.265Z,4.80
2018-01-06T17:02:50.779Z,4.80
2018-01-06T17:05:18.324Z,4.70
2018-01-06T17:07:45.887Z,4.80
2018-01-06T17:10:13.438Z,4.70
2018-01-06T17:12:41.009Z,4.70
2018-01-06T17:15:08.505Z,4.60
2018-01-06T17:17:36.018Z,4.60
2018-01-06T17:20:03.518Z,4.50
2018-01-06T17:22:31.073Z,4.60
2018-01-06T17:24:59.386Z,4.80
2018-01-06T17:27:26.902Z,4.80
2018-01-06T17:29:55.162Z,4.80
2018-01-06T17:32:22.716Z,4.80
2018-01-06T17:34:50.213Z,4.80
2018-01-06T17:37:17.730Z,4.80
2018-01-06T17:39:45.273Z,4.80
2018-01-06T17:42:12.782Z,4.80
2018-01-06T17:44:40.278Z,4.70
2018-01-06T17:47:07.778Z,4.60
2018-01-06T17:49:36.063Z,4.40
2018-01-06T17:52:04.326Z,4.40
2018-01-06T17:54:32.652Z,4.30
2018-01-06T17:57:00.188Z,4.30
2018-01-06T17:59:27.749Z,4.30
2018-01-06T18:01:55.246Z,4.20
2018-01-06T18:04:22.800Z,4.20
2018-01-06T18:06:50.349Z,4.10
2018-01-06T18:09:17.913Z,4.10
2018-01-06T18:11:45.414Z,4.10
2018-01-06T18:14:12.976Z,4.10
2018-01-06T18:16:41.294Z,3.90
2018-01-06T18:19:08.814Z,3.90
2018-01-06T18:21:37.126Z,3.90
2018-01-06T18:24:04.650Z,3.90
2018-01-06T18:26:32.965Z,3.80
2018-01-06T18:29:00.474Z,3.80
2018-01-06T18:31:28.289Z,3.70
2018-01-06T18:33:55.802Z,3.60
2018-01-06T18:36:24.062Z,3.60
2018-01-06T18:38:51.626Z,3.60
2018-01-06T18:41:19.164Z,3.50
2018-01-06T18:43:46.729Z,3.50
2018-01-06T18:46:14.277Z,3.40
2018-01-06T18:48:41.845Z,3.40
2018-01-06T18:51:09.450Z,3.30
2018-01-06T18:53:37.077Z,3.20
2018-01-06T18:56:04.630Z,3.20
2018-01-06T18:58:32.252Z,3.20
2018-01-06T19:00:59.776Z,3.10
2018-01-06T19:03:28.130Z,3.00
2018-01-06T19:05:55.686Z,3.00
2018-01-06T19:08:24.781Z,2.90
2018-01-06T19:10:52.339Z,2.90
2018-01-06T19:13:19.884Z,3.00
2018-01-06T19:15:47.448Z,3.00
2018-01-06T19:18:14.999Z,2.90
2018-01-06T19:20:42.644Z,2.80
2018-01-06T19:23:10.189Z,2.80
2018-01-06T19:25:37.901Z,2.70
2018-01-06T19:28:05.458Z,2.70
2018-01-06T19:30:33.034Z,2.70
2018-01-06T19:33:00.591Z,2.70
2018-01-06T19:35:28.932Z,2.60
2018-01-06T19:37:56.523Z,2.60
2018-01-06T19:40:24.093Z,2.60
2018-01-06T19:42:52.405Z,2.70
2018-01-06T19:45:19.992Z,2.70
2018-01-06T19:47:47.515Z,2.60
2018-01-06T19:50:15.091Z,2.60
2018-01-06T19:52:42.646Z,2.60
2018-01-06T19:55:10.205Z,2.50
2018-01-06T19:57:37.805Z,2.50
2018-01-06T20:00:05.379Z,2.50
2018-01-06T20:02:32.921Z,2.40
2018-01-06T20:05:00.489Z,2.40
2018-01-06T20:07:28.042Z,2.40
2018-01-06T20:09:55.613Z,2.40
2018-01-06T20:12:24.679Z,2.40
2018-01-06T20:14:52.265Z,2.40
2018-01-06T20:17:19.914Z,2.40
2018-01-06T20:19:47.581Z,2.40
2018-01-06T20:22:15.145Z,2.30
2018-01-06T20:24:42.717Z,2.30
2018-01-06T20:27:11.046Z,2.30
2018-01-06T20:29:38.634Z,2.20
2018-01-06T20:32:06.186Z,2.30
2018-01-06T20:34:33.758Z,2.20
2018-01-06T20:37:01.415Z,2.20
2018-01-06T20:39:28.982Z,2.20
2018-01-06T20:41:56.520Z,2.10
2018-01-06T20:44:24.092Z,2.20
2018-01-06T20:46:51.646Z,2.40
2018-01-06T20:49:19.195Z,2.40
2018-01-06T20:51:46.765Z,2.30
2018-01-06T20:54:14.331Z,2.20
2018-01-06T20:56:41.901Z,2.20
2018-01-06T20:59:09.443Z,2.20
2018-01-06T21:01:37.009Z,2.20
2018-01-06T21:04:04.548Z,2.10
2018-01-06T21:06:32.114Z,2.10
2018-01-06T21:08:59.664Z,2.10
2018-01-06T21:11:27.234Z,2.10
2018-01-06T21:13:54.790Z,2.10
2018-01-06T21:16:22.431Z,2.20
2018-01-06T21:18:49.986Z,2.30
2018-01-06T21:21:17.581Z,2.20
2018-01-06T21:23:45.142Z,2.20
2018-01-06T21:26:12.710Z,2.20
2018-01-06T21:28:40.267Z,2.10
2018-01-06T21:31:07.828Z,2.20
2018-01-06T21:33:35.386Z,2.10
2018-01-06T21:36:02.958Z,2.10
2018-01-06T21:38:30.688Z,2.00
2018-01-06T21:40:58.258Z,2.00
2018-01-06T21:43:25.804Z,2.00
2018-01-06T21:45:53.377Z,2.10
2018-01-06T21:48:20.930Z,2.10
2018-01-06T21:50:48.502Z,2.10
2018-01-06T21:53:16.063Z,2.10
2018-01-06T21:55:43.633Z,1.90
2018-01-06T21:58:11.186Z,1.70
2018-01-06T22:00:38.937Z,1.60
2018-01-06T22:03:06.480Z,1.50
2018-01-06T22:05:34.026Z,1.50
2018-01-06T22:08:01.590Z,1.50
2018-01-06T22:10:29.138Z,1.50
2018-01-06T22:12:56.698Z,1.50
2018-01-06T22:15:24.250Z,1.50
2018-01-06T22:17:51.819Z,1.60
2018-01-06T22:20:19.365Z,1.60
2018-01-06T22:22:46.940Z,1.50
2018-01-06T22:25:14.493Z,1.50
2018-01-06T22:27:42.065Z,1.40
2018-01-06T22:30:09.618Z,1.40
2018-01-06T22:32:37.195Z,1.30
2018-01-06T22:35:04.765Z,1.30
2018-01-06T22:37:32.330Z,1.30
2018-01-06T22:39:59.957Z,1.30
2018-01-06T22:42:27.529Z,1.30
2018-01-06T22:44:55.083Z,1.40
2018-01-06T22:47:22.647Z,1.40
2018-01-06T22:49:50.193Z,1.40
2018-01-06T22:52:17.809Z,1.40
2018-01-06T22:54:46.134Z,1.40
2018-01-06T22:57:13.701Z,1.40
2018-01-06T22:59:41.336Z,1.40
2018-01-06T23:02:08.965Z,1.40
2018-01-06T23:04:37.278Z,1.40
2018-01-06T23:07:04.850Z,1.40
2018-01-06T23:09:32.508Z,1.40
2018-01-06T23:12:00.087Z,1.50
2018-01-06T23:14:27.641Z,1.50
2018-01-06T23:16:55.209Z,1.50
2018-01-06T23:19:22.849Z,1.40
2018-01-06T23:21:50.507Z,1.40
2018-01-06T23:24:18.209Z,1.30
2018-01-06T23:26:45.858Z,1.30
2018-01-06T23:29:13.430Z,1.30
2018-01-06T23:31:40.981Z,1.30
2018-01-06T23:34:08.551Z,1.40
2018-01-06T23:36:36.142Z,1.40
2018-01-06T23:39:03.988Z,1.40
2018-01-06T23:41:32.306Z,1.50
2018-01-06T23:43:59.873Z,1.50
2018-01-06T23:46:27.409Z,1.50
2018-01-06T23:48:55.003Z,1.50
2018-01-06T23:51:22.561Z,1.50
2018-01-06T23:53:50.161Z,1.50
2018-01-06T23:56:17.714Z,1.40
2018-01-06T23:58:46.050Z,1.40
